Time,TemperatureF,DewpointF,PressureIn,WindDirection,WindDirectionDegrees,WindSpeedMPH,WindSpeedGustMPH,Humidity,HourlyPrecipIn,Conditions,Clouds,dailyrainin,SoftwareType,DateUTC
2013-05-19 00:06:00,57.6,46.6,29.98,North,0,0.0,-999.0,67,0.00,,,0.00,open2300 v1.10,2013-05-19 07:06:00,
2013-05-19 00:21:00,57.0,46.1,29.98,North,0,0.0,-999.0,67,0.00,,,0.00,open2300 v1.10,2013-05-19 07:21:00,
2013-05-19 00:36:00,56.8,46.3,29.98,North,0,0.0,-999.0,68,0.00,,,0.00,open2300 v1.10,2013-05-19 07:36:00,
2013-05-19 00:51:00,56.8,46.3,29.98,North,0,0.0,-999.0,68,0.00,,,0.00,open2300 v1.10,2013-05-19 07:51:00,
2013-05-19 01:07:00,56.8,46.7,29.98,North,0,0.0,-999.0,69,0.00,,,0.00,open2300 v1.10,2013-05-19 08:07:00,
2013-05-19 01:21:00,56.8,46.7,29.98,North,0,0.0,-999.0,69,0.00,,,0.00,open2300 v1.10,2013-05-19 08:21:00,
2013-05-19 01:36:00,56.3,46.3,29.98,North,0,0.0,-999.0,69,0.00,,,0.00,open2300 v1.10,2013-05-19 08:36:00,
2013-05-19 01:51:00,56.1,46.5,29.98,North,0,0.0,-999.0,70,0.00,,,0.00,open2300 v1.10,2013-05-19 08:51:00,
2013-05-19 02:07:00,56.3,46.7,29.98,North,0,0.0,-999.0,70,0.00,,,0.00,open2300 v1.10,2013-05-19 09:07:00,
2013-05-19 02:21:00,56.3,46.7,29.98,North,0,0.0,-999.0,70,0.00,,,0.00,open2300 v1.10,2013-05-19 09:21:00,
2013-05-19 02:36:00,56.3,46.7,29.98,North,0,0.0,-999.0,70,0.00,,,0.00,open2300 v1.10,2013-05-19 09:36:00,
2013-05-19 02:51:00,56.3,46.7,29.98,North,0,0.0,-999.0,70,0.00,,,0.00,open2300 v1.10,2013-05-19 09:51:00,
2013-05-19 03:07:00,56.3,46.7,29.98,North,0,0.0,-999.0,70,0.00,,,0.00,open2300 v1.10,2013-05-19 10:07:00,
2013-05-19 03:21:00,56.1,46.5,29.98,North,0,0.0,-999.0,70,0.00,,,0.00,open2300 v1.10,2013-05-19 10:21:00,
2013-05-19 03:36:00,55.9,46.7,29.98,North,0,0.0,-999.0,71,0.00,,,0.00,open2300 v1.10,2013-05-19 10:36:00,
2013-05-19 03:51:00,55.9,46.7,29.98,North,0,0.0,-999.0,71,0.00,,,0.00,open2300 v1.10,2013-05-19 10:51:00,
2013-05-19 04:07:00,55.9,46.7,29.99,North,0,0.0,-999.0,71,0.00,,,0.00,open2300 v1.10,2013-05-19 11:07:00,
2013-05-19 04:21:00,55.9,46.7,29.98,North,0,0.0,-999.0,71,0.00,,,0.00,open2300 v1.10,2013-05-19 11:21:00,
2013-05-19 04:36:00,55.6,46.4,29.98,North,0,0.0,-999.0,71,0.00,,,0.00,open2300 v1.10,2013-05-19 11:36:00,
2013-05-19 04:51:00,55.6,46.4,29.98,North,0,0.0,-999.0,71,0.00,,,0.00,open2300 v1.10,2013-05-19 11:51:00,
2013-05-19 05:07:00,55.6,46.4,29.98,North,0,0.0,-999.0,71,0.00,,,0.00,open2300 v1.10,2013-05-19 12:07:00,
2013-05-19 05:21:00,55.4,46.2,29.98,North,0,0.0,-999.0,71,0.00,,,0.00,open2300 v1.10,2013-05-19 12:21:00,
2013-05-19 05:36:00,55.2,46.0,29.98,North,0,0.0,-999.0,71,0.00,,,0.00,open2300 v1.10,2013-05-19 12:36:00,
2013-05-19 05:51:00,55.2,46.0,29.99,North,0,0.0,-999.0,71,0.00,,,0.00,open2300 v1.10,2013-05-19 12:51:00,
2013-05-19 06:07:00,55.0,45.8,29.99,North,0,0.0,-999.0,71,0.00,,,0.00,open2300 v1.10,2013-05-19 13:07:00,
2013-05-19 06:21:00,55.0,46.2,29.99,North,0,0.0,-999.0,72,0.00,,,0.00,open2300 v1.10,2013-05-19 13:21:00,
2013-05-19 06:36:00,55.2,46.4,29.99,North,0,0.0,-999.0,72,0.00,,,0.00,open2300 v1.10,2013-05-19 13:36:00,
2013-05-19 06:51:00,55.6,46.7,29.99,North,0,0.0,-999.0,72,0.00,,,0.00,open2300 v1.10,2013-05-19 13:51:00,
2013-05-19 07:07:00,55.8,46.9,29.99,North,0,0.0,-999.0,72,0.00,,,0.00,open2300 v1.10,2013-05-19 14:07:00,
2013-05-19 07:21:00,56.1,47.2,29.99,North,0,0.0,-999.0,72,0.00,,,0.00,open2300 v1.10,2013-05-19 14:21:00,
2013-05-19 07:36:00,56.5,47.5,29.99,North,0,0.0,-999.0,72,0.00,,,0.00,open2300 v1.10,2013-05-19 14:36:00,
2013-05-19 07:51:00,57.0,48.0,30.00,North,0,0.0,-999.0,72,0.00,,,0.00,open2300 v1.10,2013-05-19 14:51:00,
2013-05-19 08:06:00,57.4,48.4,30.00,North,0,0.0,-999.0,72,0.00,,,0.00,open2300 v1.10,2013-05-19 15:06:00,
2013-05-19 08:21:00,57.9,48.9,30.01,North,0,0.0,-999.0,72,0.00,,,0.00,open2300 v1.10,2013-05-19 15:21:00,
2013-05-19 08:36:00,58.3,49.3,30.01,North,0,0.0,-999.0,72,0.00,,,0.00,open2300 v1.10,2013-05-19 15:36:00,
2013-05-19 08:51:00,58.8,49.8,30.00,North,0,0.0,-999.0,72,0.00,,,0.00,open2300 v1.10,2013-05-19 15:51:00,
2013-05-19 09:06:00,58.8,49.8,30.00,North,0,0.0,-999.0,72,0.00,,,0.00,open2300 v1.10,2013-05-19 16:06:00,
2013-05-19 09:21:00,59.2,50.2,30.00,North,0,0.0,-999.0,72,0.00,,,0.00,open2300 v1.10,2013-05-19 16:21:00,
2013-05-19 09:36:00,59.7,50.7,30.00,North,0,0.0,-999.0,72,0.00,,,0.00,open2300 v1.10,2013-05-19 16:36:00,
2013-05-19 09:51:00,60.1,51.1,30.01,North,0,0.0,-999.0,72,0.00,,,0.00,open2300 v1.10,2013-05-19 16:51:00,
2013-05-19 10:06:00,60.6,51.6,30.01,North,0,0.0,-999.0,72,0.00,,,0.00,open2300 v1.10,2013-05-19 17:06:00,
2013-05-19 10:21:00,61.2,51.8,30.00,North,0,0.0,-999.0,71,0.00,,,0.00,open2300 v1.10,2013-05-19 17:21:00,
2013-05-19 10:36:00,61.7,52.2,30.00,North,0,0.0,-999.0,71,0.00,,,0.00,open2300 v1.10,2013-05-19 17:36:00,
2013-05-19 10:51:00,62.4,52.9,29.99,North,0,0.0,-999.0,71,0.00,,,0.00,open2300 v1.10,2013-05-19 17:51:00,
2013-05-19 11:06:00,63.1,53.2,29.99,North,0,0.0,-999.0,70,0.00,,,0.00,open2300 v1.10,2013-05-19 18:06:00,
2013-05-19 11:21:00,64.2,53.5,29.99,North,0,0.0,-999.0,68,0.00,,,0.00,open2300 v1.10,2013-05-19 18:21:00,
2013-05-19 11:36:00,64.9,52.4,29.99,North,0,0.0,-999.0,64,0.00,,,0.00,open2300 v1.10,2013-05-19 18:36:00,
2013-05-19 11:51:00,65.8,52.0,29.98,North,0,0.0,-999.0,61,0.00,,,0.00,open2300 v1.10,2013-05-19 18:51:00,
2013-05-19 12:06:00,66.6,51.3,29.98,North,0,0.0,-999.0,58,0.00,,,0.00,open2300 v1.10,2013-05-19 19:06:00,
2013-05-19 12:21:00,67.1,51.3,29.97,North,0,0.0,-999.0,57,0.00,,,0.00,open2300 v1.10,2013-05-19 19:21:00,
2013-05-19 12:36:00,67.6,50.4,29.97,North,0,0.0,-999.0,54,0.00,,,0.00,open2300 v1.10,2013-05-19 19:36:00,
2013-05-19 12:51:00,67.6,49.9,29.97,North,0,0.0,-999.0,53,0.00,,,0.00,open2300 v1.10,2013-05-19 19:51:00,
2013-05-19 13:06:00,67.6,49.9,29.96,North,0,0.0,-999.0,53,0.00,,,0.00,open2300 v1.10,2013-05-19 20:06:00,
2013-05-19 13:21:00,67.6,49.4,29.96,North,0,0.0,-999.0,52,0.00,,,0.00,open2300 v1.10,2013-05-19 20:21:00,
2013-05-19 13:36:00,67.3,49.1,29.96,North,0,0.0,-999.0,52,0.00,,,0.00,open2300 v1.10,2013-05-19 20:36:00,
2013-05-19 13:51:00,66.7,49.1,29.96,North,0,0.0,-999.0,53,0.00,,,0.00,open2300 v1.10,2013-05-19 20:51:00,
2013-05-19 14:06:00,66.0,48.9,29.95,North,0,0.0,-999.0,54,0.00,,,0.00,open2300 v1.10,2013-05-19 21:06:00,
2013-05-19 14:21:00,65.5,49.3,29.95,North,0,0.0,-999.0,56,0.00,,,0.00,open2300 v1.10,2013-05-19 21:21:00,
2013-05-19 14:36:00,65.8,49.7,29.95,North,0,0.0,-999.0,56,0.00,,,0.00,open2300 v1.10,2013-05-19 21:36:00,
2013-05-19 14:51:00,66.0,49.9,29.94,North,0,0.0,-999.0,56,0.00,,,0.00,open2300 v1.10,2013-05-19 21:51:00,
2013-05-19 15:06:00,66.6,49.9,29.93,North,0,0.0,-999.0,55,0.00,,,0.00,open2300 v1.10,2013-05-19 22:06:00,
2013-05-19 15:21:00,67.1,49.4,29.92,North,0,0.0,-999.0,53,0.00,,,0.00,open2300 v1.10,2013-05-19 22:21:00,
2013-05-19 15:36:00,67.8,49.1,29.92,North,0,0.0,-999.0,51,0.00,,,0.00,open2300 v1.10,2013-05-19 22:36:00,
2013-05-19 15:51:00,68.5,49.2,29.92,North,0,0.0,-999.0,50,0.00,,,0.00,open2300 v1.10,2013-05-19 22:51:00,
2013-05-19 16:06:00,69.1,49.1,29.91,North,0,0.0,-999.0,49,0.00,,,0.00,open2300 v1.10,2013-05-19 23:06:00,
2013-05-19 16:21:00,69.6,49.0,29.91,North,0,0.0,-999.0,48,0.00,,,0.00,open2300 v1.10,2013-05-19 23:21:00,
2013-05-19 16:36:00,70.2,49.5,29.91,North,0,0.0,-999.0,48,0.00,,,0.00,open2300 v1.10,2013-05-19 23:36:00,
2013-05-19 16:51:00,70.0,49.3,29.90,North,0,0.0,-999.0,48,0.00,,,0.00,open2300 v1.10,2013-05-19 23:51:00,
2013-05-19 17:06:00,70.9,50.1,29.89,North,0,0.0,-999.0,48,0.00,,,0.00,open2300 v1.10,2013-05-20 00:06:00,
2013-05-19 17:21:00,70.2,49.5,29.89,North,0,0.0,-999.0,48,0.00,,,0.00,open2300 v1.10,2013-05-20 00:21:00,
2013-05-19 17:36:00,70.9,50.1,29.89,North,0,0.0,-999.0,48,0.00,,,0.00,open2300 v1.10,2013-05-20 00:36:00,
2013-05-19 17:51:00,71.2,50.5,29.89,North,0,0.0,-999.0,48,0.00,,,0.00,open2300 v1.10,2013-05-20 00:51:00,
2013-05-19 18:06:00,71.2,50.5,29.89,North,0,0.0,-999.0,48,0.00,,,0.00,open2300 v1.10,2013-05-20 01:06:00,
2013-05-19 18:21:00,70.9,50.1,29.89,North,0,0.0,-999.0,48,0.00,,,0.00,open2300 v1.10,2013-05-20 01:21:00,
2013-05-19 18:36:00,70.7,50.6,29.88,North,0,0.0,-999.0,49,0.00,,,0.00,open2300 v1.10,2013-05-20 01:36:00,
2013-05-19 22:06:00,58.8,45.4,29.89,North,0,0.0,-999.0,61,0.00,,,0.00,open2300 v1.10,2013-05-20 05:06:00,
2013-05-19 22:21:00,58.8,45.8,29.89,North,0,0.0,-999.0,62,0.00,,,0.00,open2300 v1.10,2013-05-20 05:21:00,
2013-05-19 22:36:00,59.0,46.0,29.89,North,0,0.0,-999.0,62,0.00,,,0.00,open2300 v1.10,2013-05-20 05:36:00,
2013-05-19 22:51:00,59.4,46.7,29.89,North,0,0.0,-999.0,63,0.00,,,0.00,open2300 v1.10,2013-05-20 05:51:00,
2013-05-19 23:06:00,59.5,46.9,29.88,North,0,0.0,-999.0,63,0.00,,,0.00,open2300 v1.10,2013-05-20 06:06:00,
2013-05-19 23:21:00,59.5,46.9,29.88,North,0,0.0,-999.0,63,0.00,,,0.00,open2300 v1.10,2013-05-20 06:21:00,
2013-05-19 23:36:00,59.4,46.7,29.88,North,0,0.0,-999.0,63,0.00,,,0.00,open2300 v1.10,2013-05-20 06:36:00,
2013-05-19 23:51:00,59.4,46.7,29.87,North,0,0.0,-999.0,63,0.00,,,0.00,open2300 v1.10,2013-05-20 06:51:00,